Burr Oak, Michigan
Current Conditions -  °F | °C
As of 3:35 PM on Monday 24 Nov 2014 (Local Time) from KIRS Reporting Station
Light Snow Light Snow  
Wind Chill: 23°   Ceiling: 1900
Heat Index: 36°   Visibility: 5mi
Dew Point: 30°   Wind: 28mph
Humidity: 81%   Direction: 230°SW
Pressure: 29.45"   Gusts: 43mph
Location:  41.85°N, 85.32°W
Report Text: KIRS 242035Z AUTO 23024G37KT 5SM -SN BKN019 OVC025 02/M01 A2945 RMK AO2
Loading
Personal Weather Stations






























Interactive Weather Map New forecast layout! Learn more

10-Day Weather Forecast

Advertisements
Track Severe Weather on mobile